Terminal Aerodrome Forecast
Issued by NWS Chicago, IL

Home | Current Version | Previous Version | Graphics & Text | Print | Product List | Glossary On
Versions: 1 2 3 4 5 6 7 8 9 10 11 12 13 14 15 16 17 18 19 20 21
000
FTUS43 KLOT 190902 AAA
TAFRFD
TAF AMD
KRFD 190902Z 1909/2006 04004KT P6SM -SHRA BKN040 OVC100
      TEMPO 1909/1911 BKN010
     FM191300 12006KT P6SM SCT015 BKN040
     FM200000 13005KT P6SM SCT200=

USA.gov is the U.S. government's official web portal to all federal, state and local government web resources and services.